Time;durP1;ratioP1;P1;durP2;ratioP2;P2;SDS_P1;SDS_P2;PMS_P1;PMS_P2;Temp;Humidity;BMP_temperature;BMP_pressure;BME280_temperature;BME280_humidity;BME280_pressure;Samples;Min_cycle;Max_cycle;Signal;HPM_P1;HPM_P2
2022/09/15 00:01:38;;;;;;;24.27;14.60;;;;;;;;;;5070337;28;20032;-77
2022/09/15 00:04:05;;;;;;;21.73;13.13;;;;;;;;;;5071104;28;20371;-76
2022/09/15 00:06:31;;;;;;;23.70;13.85;;;;;;;;;;5071120;28;20028;-77
2022/09/15 00:08:58;;;;;;;22.17;14.02;;;;;;;;;;5071241;28;20024;-77
2022/09/15 00:11:26;;;;;;;19.77;13.52;;;;;;;;;;5070938;28;20510;-77
2022/09/15 00:13:52;;;;;;;21.40;13.85;;;;;;;;;;5070295;28;20032;-77
2022/09/15 00:16:19;;;;;;;19.80;14.80;;;;;;;;;;5070784;28;20051;-77
2022/09/15 00:18:45;;;;;;;19.52;13.40;;;;;;;;;;5070683;28;20075;-77
2022/09/15 00:21:15;;;;;;;20.45;14.27;;;;;;;;;;5033743;28;1064452;-77
2022/09/15 00:23:42;;;;;;;17.13;13.65;;;;;;;;;;5071788;28;20029;-78
2022/09/15 00:26:09;;;;;;;24.67;13.90;;;;;;;;;;5072451;28;20020;-77
2022/09/15 00:28:35;;;;;;;19.15;11.95;;;;;;;;;;5071786;28;20548;-77
2022/09/15 00:31:04;;;;;;;16.90;11.30;;;;;;;;;;5071894;28;20021;-77
2022/09/15 00:33:30;;;;;;;18.90;12.30;;;;;;;;;;5070413;28;20060;-77
2022/09/15 00:35:56;;;;;;;24.75;13.70;;;;;;;;;;5071449;28;20105;-77
2022/09/15 00:38:22;;;;;;;17.63;11.88;;;;;;;;;;5071090;28;20043;-77
2022/09/15 00:40:53;;;;;;;18.67;13.73;;;;;;;;;;5071636;28;20025;-77
2022/09/15 00:43:20;;;;;;;21.33;13.90;;;;;;;;;;5071383;28;20025;-77
2022/09/15 00:45:47;;;;;;;21.98;14.10;;;;;;;;;;5071495;28;20708;-76
2022/09/15 00:48:18;;;;;;;21.77;14.05;;;;;;;;;;5071544;28;20055;-76
2022/09/15 00:50:46;;;;;;;17.02;11.02;;;;;;;;;;5070536;28;20105;-76
2022/09/15 00:53:13;;;;;;;20.67;12.13;;;;;;;;;;5055770;28;20388;-76
2022/09/15 00:55:46;;;;;;;19.67;10.30;;;;;;;;;;5057153;28;20027;-76
2022/09/15 00:58:14;;;;;;;18.35;10.18;;;;;;;;;;5071656;28;20038;-76
2022/09/15 01:00:54;;;;;;;14.25;9.45;;;;;;;;;;5072695;28;20478;-77
2022/09/15 01:03:20;;;;;;;;;;;;;;;;;;5055348;28;20025;-77
2022/09/15 01:05:52;;;;;;;15.45;9.45;;;;;;;;;;5055228;28;19908;-77
2022/09/15 01:08:23;;;;;;;13.70;8.50;;;;;;;;;;5070814;28;20031;-77
2022/09/15 01:10:50;;;;;;;14.63;8.57;;;;;;;;;;5069690;28;20044;-76
2022/09/15 01:13:16;;;;;;;13.57;8.38;;;;;;;;;;5071379;28;20028;-76
2022/09/15 01:15:42;;;;;;;17.40;7.32;;;;;;;;;;5070907;28;20031;-77
2022/09/15 01:18:08;;;;;;;13.93;8.07;;;;;;;;;;5071403;28;20611;-77
2022/09/15 01:20:34;;;;;;;11.75;8.30;;;;;;;;;;5069908;28;20537;-77
2022/09/15 01:23:12;;;;;;;11.57;7.90;;;;;;;;;;5070533;28;20111;-76
2022/09/15 01:25:38;;;;;;;12.85;8.32;;;;;;;;;;5070994;28;20024;-76
2022/09/15 01:28:10;;;;;;;11.85;8.38;;;;;;;;;;5069908;28;20043;-78
2022/09/15 01:30:45;;;;;;;11.30;7.28;;;;;;;;;;5071018;28;20119;-76
2022/09/15 01:33:22;;;;;;;13.60;8.75;;;;;;;;;;5069967;28;20025;-76
2022/09/15 01:35:55;;;;;;;14.25;9.68;;;;;;;;;;5070576;28;20505;-76
2022/09/15 01:38:27;;;;;;;11.40;7.38;;;;;;;;;;5070228;28;20028;-77
2022/09/15 01:40:59;;;;;;;14.25;8.75;;;;;;;;;;5070053;28;20029;-76
2022/09/15 01:43:26;;;;;;;15.77;8.45;;;;;;;;;;5069649;28;20058;-76
2022/09/15 01:45:53;;;;;;;11.18;7.55;;;;;;;;;;5068967;28;20082;-76
2022/09/15 01:48:20;;;;;;;12.25;8.13;;;;;;;;;;5068928;28;20033;-75
2022/09/15 01:50:48;;;;;;;18.80;8.43;;;;;;;;;;5068967;28;20051;-75
2022/09/15 01:53:17;;;;;;;14.27;8.90;;;;;;;;;;5068583;28;20024;-75
2022/09/15 01:55:48;;;;;;;12.55;8.10;;;;;;;;;;5070045;28;20073;-76
2022/09/15 01:58:14;;;;;;;11.65;8.55;;;;;;;;;;5070292;28;20035;-76
2022/09/15 02:00:42;;;;;;;17.85;8.98;;;;;;;;;;5068802;28;20078;-76
2022/09/15 02:03:16;;;;;;;13.73;8.18;;;;;;;;;;5068234;28;20035;-76
2022/09/15 02:05:44;;;;;;;14.23;8.25;;;;;;;;;;5070529;28;20102;-76
2022/09/15 02:08:10;;;;;;;15.20;8.85;;;;;;;;;;5069428;28;20062;-76
2022/09/15 02:10:39;;;;;;;13.57;8.55;;;;;;;;;;5068228;28;20071;-77
2022/09/15 02:13:26;;;;;;;12.05;8.65;;;;;;;;;;5069317;28;20050;-76
2022/09/15 02:15:55;;;;;;;13.02;8.27;;;;;;;;;;5059841;28;20429;-77
2022/09/15 02:18:31;;;;;;;15.40;9.50;;;;;;;;;;5069854;28;20020;-77
2022/09/15 02:21:06;;;;;;;14.73;9.38;;;;;;;;;;5069383;28;20515;-77
2022/09/15 02:23:36;;;;;;;12.73;8.20;;;;;;;;;;5069618;28;20016;-76
2022/09/15 02:26:07;;;;;;;16.05;8.63;;;;;;;;;;5069670;28;20108;-77
2022/09/15 02:28:36;;;;;;;14.68;9.57;;;;;;;;;;5056533;28;20534;-77
2022/09/15 02:31:04;;;;;;;13.27;8.95;;;;;;;;;;5061933;28;20025;-77
2022/09/15 02:33:32;;;;;;;15.55;9.18;;;;;;;;;;5069759;28;20035;-76
2022/09/15 02:36:00;;;;;;;10.82;7.65;;;;;;;;;;5069420;28;20029;-76
2022/09/15 02:38:28;;;;;;;16.65;8.63;;;;;;;;;;5070060;28;20032;-77
2022/09/15 02:40:55;;;;;;;13.30;8.38;;;;;;;;;;5069087;28;20025;-76
2022/09/15 02:43:22;;;;;;;12.02;8.02;;;;;;;;;;5070336;28;20028;-76
2022/09/15 02:45:48;;;;;;;12.23;8.20;;;;;;;;;;5069231;28;20432;-76
2022/09/15 02:48:14;;;;;;;13.30;8.15;;;;;;;;;;5070498;28;20028;-76
2022/09/15 02:50:40;;;;;;;13.65;8.32;;;;;;;;;;5069658;28;20073;-76
2022/09/15 02:53:07;;;;;;;11.88;7.80;;;;;;;;;;5058251;28;20044;-77
2022/09/15 02:55:34;;;;;;;16.77;8.73;;;;;;;;;;5063630;28;20028;-76
2022/09/15 02:58:00;;;;;;;12.95;7.18;;;;;;;;;;5069431;28;20099;-76
2022/09/15 03:00:27;;;;;;;11.35;7.40;;;;;;;;;;5067824;28;20043;-77
2022/09/15 03:02:54;;;;;;;11.95;7.80;;;;;;;;;;5068828;28;20024;-77
2022/09/15 03:05:22;;;;;;;10.88;6.78;;;;;;;;;;5068094;28;20028;-76
2022/09/15 03:07:49;;;;;;;13.57;7.32;;;;;;;;;;5067380;28;20028;-76
2022/09/15 03:10:15;;;;;;;12.35;6.93;;;;;;;;;;5067337;28;20127;-76
2022/09/15 03:12:45;;;;;;;12.23;7.45;;;;;;;;;;5067217;28;20024;-75
2022/09/15 03:15:12;;;;;;;11.95;8.07;;;;;;;;;;5066440;28;20039;-75
2022/09/15 03:17:43;;;;;;;13.20;8.07;;;;;;;;;;5068380;28;20027;-75
2022/09/15 03:20:11;;;;;;;8.95;5.13;;;;;;;;;;5064423;28;20551;-75
2022/09/15 03:22:37;;;;;;;8.95;5.95;;;;;;;;;;5068324;28;20091;-76
2022/09/15 03:25:04;;;;;;;10.90;5.97;;;;;;;;;;5067983;28;20155;-76
2022/09/15 03:27:30;;;;;;;17.52;6.57;;;;;;;;;;5068208;28;20078;-76
2022/09/15 03:29:56;;;;;;;12.50;6.55;;;;;;;;;;5067603;28;20037;-76
2022/09/15 03:32:22;;;;;;;13.93;6.22;;;;;;;;;;5067962;28;20029;-75
2022/09/15 03:34:48;;;;;;;12.07;6.28;;;;;;;;;;5068732;28;20021;-75
2022/09/15 03:37:15;;;;;;;11.00;5.78;;;;;;;;;;5067408;28;20075;-75
2022/09/15 03:39:41;;;;;;;10.02;5.97;;;;;;;;;;5068178;28;20057;-75
2022/09/15 03:42:07;;;;;;;11.48;6.43;;;;;;;;;;5065673;28;20032;-75
2022/09/15 03:44:33;;;;;;;11.02;6.38;;;;;;;;;;5067777;28;20053;-76
2022/09/15 03:46:59;;;;;;;12.57;6.47;;;;;;;;;;5066958;28;20021;-75
2022/09/15 03:49:25;;;;;;;10.05;5.18;;;;;;;;;;5066229;28;20562;-75
2022/09/15 03:51:51;;;;;;;11.63;6.57;;;;;;;;;;5067872;28;20155;-76
2022/09/15 03:54:17;;;;;;;11.05;5.50;;;;;;;;;;5068217;28;20035;-75
2022/09/15 03:56:46;;;;;;;10.02;5.47;;;;;;;;;;5069674;28;20032;-76
2022/09/15 03:59:12;;;;;;;8.73;5.25;;;;;;;;;;5069031;28;20034;-75
2022/09/15 04:01:38;;;;;;;11.30;5.80;;;;;;;;;;5068763;28;20021;-76
2022/09/15 04:04:05;;;;;;;7.95;5.60;;;;;;;;;;5068563;28;20082;-76
2022/09/15 04:06:31;;;;;;;10.02;5.70;;;;;;;;;;5068165;28;20107;-76
2022/09/15 04:08:59;;;;;;;8.55;5.30;;;;;;;;;;5068158;28;20479;-76
2022/09/15 04:11:25;;;;;;;13.35;5.78;;;;;;;;;;5067389;28;20151;-75
2022/09/15 04:13:52;;;;;;;10.40;5.50;;;;;;;;;;5070226;28;20131;-75
2022/09/15 04:16:19;;;;;;;11.65;5.28;;;;;;;;;;5072265;28;20498;-76
2022/09/15 04:18:45;;;;;;;8.95;4.85;;;;;;;;;;5071754;28;20020;-75
2022/09/15 04:21:12;;;;;;;9.27;5.85;;;;;;;;;;5071229;28;20499;-75
2022/09/15 04:23:39;;;;;;;11.93;5.97;;;;;;;;;;5071877;28;20031;-75
2022/09/15 04:26:07;;;;;;;14.50;6.22;;;;;;;;;;5071400;28;20123;-75
2022/09/15 04:28:35;;;;;;;9.38;5.28;;;;;;;;;;5071842;28;20024;-75
2022/09/15 04:31:09;;;;;;;11.82;5.30;;;;;;;;;;5071574;28;20474;-75
2022/09/15 04:33:35;;;;;;;8.10;4.75;;;;;;;;;;5071206;28;20021;-76
2022/09/15 04:36:03;;;;;;;7.63;4.97;;;;;;;;;;5071534;28;20062;-76
2022/09/15 04:38:29;;;;;;;10.07;4.78;;;;;;;;;;5070327;28;20035;-77
2022/09/15 04:40:56;;;;;;;8.82;4.70;;;;;;;;;;5071818;28;20024;-76
2022/09/15 04:43:22;;;;;;;9.48;4.82;;;;;;;;;;5071315;28;20025;-77
2022/09/15 04:45:50;;;;;;;9.02;4.32;;;;;;;;;;5071806;28;20128;-76
2022/09/15 04:48:16;;;;;;;8.52;4.82;;;;;;;;;;5071381;28;20032;-77
2022/09/15 04:50:42;;;;;;;10.10;4.75;;;;;;;;;;5070969;28;20028;-77
2022/09/15 04:53:09;;;;;;;6.85;3.92;;;;;;;;;;5070855;28;20857;-76
2022/09/15 04:55:35;;;;;;;9.35;3.08;;;;;;;;;;5071149;28;20050;-77
2022/09/15 04:58:01;;;;;;;10.18;4.63;;;;;;;;;;5071187;28;20052;-77
2022/09/15 05:00:31;;;;;;;9.52;4.45;;;;;;;;;;5070875;28;20736;-77
2022/09/15 05:02:58;;;;;;;8.38;3.78;;;;;;;;;;5071092;28;20505;-77
2022/09/15 05:05:24;;;;;;;9.90;4.30;;;;;;;;;;5070576;28;20028;-77
2022/09/15 05:07:51;;;;;;;7.10;4.30;;;;;;;;;;5070690;28;20029;-77
2022/09/15 05:10:18;;;;;;;8.20;4.57;;;;;;;;;;5070633;28;20033;-77
2022/09/15 05:12:44;;;;;;;7.22;3.50;;;;;;;;;;5070538;28;20534;-77
2022/09/15 05:15:10;;;;;;;8.65;3.85;;;;;;;;;;5070374;28;20051;-76
2022/09/15 05:17:36;;;;;;;10.15;4.07;;;;;;;;;;5070858;28;20481;-77
2022/09/15 05:20:03;;;;;;;6.15;3.17;;;;;;;;;;5070533;28;20067;-76
2022/09/15 05:22:30;;;;;;;8.68;4.18;;;;;;;;;;5069868;28;20044;-76
2022/09/15 05:24:56;;;;;;;6.82;3.55;;;;;;;;;;5067923;28;20029;-76
2022/09/15 05:27:22;;;;;;;9.27;4.40;;;;;;;;;;5070551;28;20032;-77
2022/09/15 05:29:48;;;;;;;9.40;4.15;;;;;;;;;;5069986;28;20090;-77
2022/09/15 05:32:14;;;;;;;9.73;3.92;;;;;;;;;;5070202;28;20032;-77
2022/09/15 05:34:40;;;;;;;9.15;3.65;;;;;;;;;;5070637;28;20020;-76
2022/09/15 05:37:06;;;;;;;8.32;3.50;;;;;;;;;;5068864;28;20818;-77
2022/09/15 05:39:32;;;;;;;6.28;3.58;;;;;;;;;;5068610;28;20023;-76
2022/09/15 05:41:58;;;;;;;8.52;3.60;;;;;;;;;;5069164;28;20028;-76
2022/09/15 05:44:24;;;;;;;6.05;3.60;;;;;;;;;;5069929;28;20024;-77
2022/09/15 05:46:51;;;;;;;7.90;3.55;;;;;;;;;;5069674;28;20077;-76
2022/09/15 05:49:17;;;;;;;8.32;3.28;;;;;;;;;;5070345;28;20029;-77
2022/09/15 05:51:43;;;;;;;5.93;3.25;;;;;;;;;;5069262;28;20082;-75
2022/09/15 05:54:09;;;;;;;7.18;3.30;;;;;;;;;;5048963;28;20480;-76
2022/09/15 05:56:35;;;;;;;7.20;2.80;;;;;;;;;;5063649;28;20020;-76
2022/09/15 05:59:01;;;;;;;6.45;3.00;;;;;;;;;;5069715;28;20516;-76
2022/09/15 06:01:28;;;;;;;7.53;3.90;;;;;;;;;;5069930;28;20104;-76
2022/09/15 06:03:56;;;;;;;8.38;2.95;;;;;;;;;;5069318;28;20475;-76
2022/09/15 06:06:22;;;;;;;7.57;4.18;;;;;;;;;;5070397;28;20069;-77
2022/09/15 06:08:49;;;;;;;7.28;3.70;;;;;;;;;;5070512;28;20029;-77
2022/09/15 06:11:16;;;;;;;3.35;1.40;;;;;;;;;;5070485;28;20042;-77
2022/09/15 06:13:43;;;;;;;3.25;1.15;;;;;;;;;;5071339;28;20064;-76
2022/09/15 06:16:10;;;;;;;3.80;1.10;;;;;;;;;;5070580;28;21389;-75
2022/09/15 06:18:37;;;;;;;3.83;1.45;;;;;;;;;;5070100;28;20054;-77
2022/09/15 06:21:04;;;;;;;6.07;1.63;;;;;;;;;;5069291;28;20471;-77
2022/09/15 06:23:31;;;;;;;6.13;1.40;;;;;;;;;;5069125;28;20068;-76
2022/09/15 06:26:02;;;;;;;5.25;1.17;;;;;;;;;;5060580;28;20413;-76
2022/09/15 06:28:28;;;;;;;4.32;1.02;;;;;;;;;;5068167;28;20028;-77
2022/09/15 06:30:54;;;;;;;2.70;1.10;;;;;;;;;;5069309;28;20043;-76
2022/09/15 06:33:20;;;;;;;4.07;1.42;;;;;;;;;;5069176;28;20033;-75
2022/09/15 06:35:46;;;;;;;4.57;1.25;;;;;;;;;;5067846;28;20513;-75
2022/09/15 06:38:12;;;;;;;9.38;1.60;;;;;;;;;;5069263;28;20056;-76
2022/09/15 06:40:38;;;;;;;7.38;3.47;;;;;;;;;;5069984;28;20024;-76
2022/09/15 06:43:04;;;;;;;12.95;3.42;;;;;;;;;;5067163;28;20036;-76
2022/09/15 06:45:31;;;;;;;10.05;3.10;;;;;;;;;;5068150;28;20031;-76
2022/09/15 06:47:57;;;;;;;8.38;2.63;;;;;;;;;;5069299;28;20029;-76
2022/09/15 06:50:23;;;;;;;6.32;3.00;;;;;;;;;;5068897;28;20425;-75
2022/09/15 06:52:49;;;;;;;6.85;2.75;;;;;;;;;;5068808;28;20100;-74
2022/09/15 06:55:15;;;;;;;9.35;3.22;;;;;;;;;;5069587;28;20439;-75
2022/09/15 06:57:41;;;;;;;8.88;2.97;;;;;;;;;;5069080;28;20020;-74
2022/09/15 07:00:07;;;;;;;11.02;3.20;;;;;;;;;;5067541;28;20036;-74
2022/09/15 07:02:33;;;;;;;7.00;3.22;;;;;;;;;;5068975;28;20019;-75
2022/09/15 07:04:59;;;;;;;7.15;3.15;;;;;;;;;;5068795;28;20033;-74
2022/09/15 07:07:26;;;;;;;11.35;3.80;;;;;;;;;;5068862;28;20104;-75
2022/09/15 07:09:52;;;;;;;6.97;2.50;;;;;;;;;;5068002;28;20036;-75
2022/09/15 07:12:19;;;;;;;8.73;2.10;;;;;;;;;;5069426;28;20036;-75
2022/09/15 07:14:45;;;;;;;7.88;2.55;;;;;;;;;;5068930;28;20066;-75
2022/09/15 07:17:10;;;;;;;6.15;1.90;;;;;;;;;;5067348;28;20064;-75
2022/09/15 07:19:37;;;;;;;5.88;2.40;;;;;;;;;;5062274;28;20064;-74
2022/09/15 07:22:03;;;;;;;7.72;2.83;;;;;;;;;;5068736;28;20080;-75
2022/09/15 07:24:29;;;;;;;8.45;2.10;;;;;;;;;;5069616;28;20501;-76
2022/09/15 07:26:55;;;;;;;9.82;2.40;;;;;;;;;;5069327;28;20036;-75
2022/09/15 07:29:21;;;;;;;7.13;1.88;;;;;;;;;;5069719;28;20027;-75
2022/09/15 07:31:47;;;;;;;6.05;1.92;;;;;;;;;;5069152;28;20037;-75
2022/09/15 07:34:13;;;;;;;6.40;1.85;;;;;;;;;;5068827;28;20032;-74
2022/09/15 07:36:39;;;;;;;10.63;2.10;;;;;;;;;;5069212;28;20055;-74
2022/09/15 07:39:05;;;;;;;12.68;2.13;;;;;;;;;;5068431;28;20127;-74
2022/09/15 07:41:32;;;;;;;7.10;2.20;;;;;;;;;;5068737;28;20036;-74
2022/09/15 07:43:59;;;;;;;6.47;1.85;;;;;;;;;;5068086;28;20058;-75
2022/09/15 07:46:26;;;;;;;6.28;1.40;;;;;;;;;;5068299;28;20035;-75
2022/09/15 07:48:55;;;;;;;11.05;2.33;;;;;;;;;;5070453;28;20395;-75
2022/09/15 07:51:21;;;;;;;8.52;1.92;;;;;;;;;;5072035;28;20486;-76
2022/09/15 07:53:48;;;;;;;7.28;1.75;;;;;;;;;;5072342;28;20101;-75
2022/09/15 07:56:17;;;;;;;8.98;1.63;;;;;;;;;;5054222;28;20609;-77
2022/09/15 07:58:43;;;;;;;8.88;1.85;;;;;;;;;;5072532;28;20035;-75
2022/09/15 08:01:10;;;;;;;8.13;1.52;;;;;;;;;;5071143;28;20167;-76
2022/09/15 08:03:41;;;;;;;9.68;1.70;;;;;;;;;;5058346;28;20032;-76
2022/09/15 08:06:07;;;;;;;6.30;1.52;;;;;;;;;;5066692;28;20029;-76
2022/09/15 08:08:33;;;;;;;8.93;1.77;;;;;;;;;;5071662;28;20105;-76
2022/09/15 08:10:59;;;;;;;7.90;1.63;;;;;;;;;;5071901;28;20067;-74
2022/09/15 08:13:25;;;;;;;7.68;2.05;;;;;;;;;;5072481;28;20557;-74
2022/09/15 08:15:51;;;;;;;13.93;2.30;;;;;;;;;;5071828;28;20020;-75
2022/09/15 08:18:17;;;;;;;11.00;1.63;;;;;;;;;;5072283;28;20030;-75
2022/09/15 08:20:44;;;;;;;6.55;1.77;;;;;;;;;;5069341;28;20045;-75
2022/09/15 08:23:10;;;;;;;6.80;1.30;;;;;;;;;;5068393;28;20090;-74
2022/09/15 08:25:37;;;;;;;11.02;1.65;;;;;;;;;;5062070;28;20024;-75
2022/09/15 08:28:03;;;;;;;4.30;1.42;;;;;;;;;;5059559;28;20109;-75
2022/09/15 08:30:30;;;;;;;8.43;1.80;;;;;;;;;;5069199;28;20072;-75
2022/09/15 08:32:56;;;;;;;10.48;2.53;;;;;;;;;;5069692;28;20028;-76
2022/09/15 08:35:21;;;;;;;5.80;1.25;;;;;;;;;;5070848;28;20110;-75
2022/09/15 08:37:49;;;;;;;7.00;1.65;;;;;;;;;;5067260;28;20044;-77
2022/09/15 08:40:20;;;;;;;5.13;1.05;;;;;;;;;;5070427;28;20036;-76
2022/09/15 08:42:47;;;;;;;4.93;1.10;;;;;;;;;;5071567;28;20047;-75
2022/09/15 08:45:21;;;;;;;6.55;1.77;;;;;;;;;;5071180;28;20033;-74
2022/09/15 08:47:47;;;;;;;3.85;0.95;;;;;;;;;;5069681;28;20032;-75
2022/09/15 08:50:14;;;;;;;7.15;1.73;;;;;;;;;;5071587;28;20031;-75
2022/09/15 08:52:43;;;;;;;6.90;1.25;;;;;;;;;;5071368;28;20052;-75
2022/09/15 08:55:18;;;;;;;7.18;1.40;;;;;;;;;;5070849;28;20255;-75
2022/09/15 08:57:44;;;;;;;5.47;0.93;;;;;;;;;;5070940;28;20423;-75
2022/09/15 09:00:15;;;;;;;9.13;1.50;;;;;;;;;;5069694;28;20035;-76
2022/09/15 09:02:57;;;;;;;4.88;1.20;;;;;;;;;;5069747;28;20024;-75
2022/09/15 09:05:35;;;;;;;5.18;1.40;;;;;;;;;;5070219;28;20142;-75
2022/09/15 09:08:20;;;;;;;5.43;0.90;;;;;;;;;;5070430;28;20483;-75
2022/09/15 09:11:06;;;;;;;6.47;1.58;;;;;;;;;;5071226;28;20036;-76
2022/09/15 09:13:45;;;;;;;6.70;1.58;;;;;;;;;;5070120;28;20033;-76
2022/09/15 09:16:21;;;;;;;7.22;1.38;;;;;;;;;;5071256;28;20398;-76
2022/09/15 09:18:47;;;;;;;8.90;1.38;;;;;;;;;;5070747;28;20056;-75
2022/09/15 09:21:13;;;;;;;6.13;1.20;;;;;;;;;;5071089;28;20471;-75
2022/09/15 09:23:48;;;;;;;2.95;1.10;;;;;;;;;;5070443;28;20029;-75
2022/09/15 09:26:14;;;;;;;7.47;1.20;;;;;;;;;;5070938;28;20067;-75
2022/09/15 09:28:54;;;;;;;6.93;1.83;;;;;;;;;;5070525;28;20048;-76
2022/09/15 09:31:20;;;;;;;;;;;;;;;;;;5071193;28;20036;-76
2022/09/15 09:33:50;;;;;;;4.00;0.90;;;;;;;;;;5070241;28;20286;-76
2022/09/15 09:36:17;;;;;;;6.18;1.55;;;;;;;;;;5070662;28;20099;-76
2022/09/15 09:38:44;;;;;;;5.82;1.05;;;;;;;;;;5070372;28;20021;-75
2022/09/15 09:41:14;;;;;;;4.65;1.25;;;;;;;;;;5070252;28;20028;-75
2022/09/15 09:43:40;;;;;;;;;;;;;;;;;;5069048;28;20020;-75
2022/09/15 09:46:15;;;;;;;9.38;1.48;;;;;;;;;;5058509;28;19916;-76
2022/09/15 09:48:43;;;;;;;8.85;1.20;;;;;;;;;;5058476;28;20021;-76
2022/09/15 09:51:32;;;;;;;6.35;1.20;;;;;;;;;;5070604;28;20801;-77
2022/09/15 09:54:15;;;;;;;5.30;0.95;;;;;;;;;;5069080;28;20042;-75
2022/09/15 09:56:41;;;;;;;6.97;1.25;;;;;;;;;;5070251;28;20505;-75
2022/09/15 09:59:27;;;;;;;5.80;0.82;;;;;;;;;;5068896;28;20047;-76
2022/09/15 10:02:14;;;;;;;8.27;2.00;;;;;;;;;;5069712;28;20758;-76
2022/09/15 10:04:51;;;;;;;5.40;1.27;;;;;;;;;;5068531;28;20024;-76
2022/09/15 10:07:19;;;;;;;6.50;1.25;;;;;;;;;;5069839;28;20025;-76
2022/09/15 10:10:05;;;;;;;7.50;1.50;;;;;;;;;;5069603;28;20024;-76
2022/09/15 10:12:33;;;;;;;8.00;1.20;;;;;;;;;;5069312;28;20494;-75
2022/09/15 10:15:01;;;;;;;4.85;1.05;;;;;;;;;;5069996;28;20028;-76
2022/09/15 10:17:38;;;;;;;3.78;0.63;;;;;;;;;;5069789;28;20028;-76
2022/09/15 10:20:05;;;;;;;6.25;0.90;;;;;;;;;;5069555;28;20037;-76
2022/09/15 10:22:36;;;;;;;5.38;0.98;;;;;;;;;;5067162;28;20131;-76
2022/09/15 10:25:04;;;;;;;4.40;0.70;;;;;;;;;;5063853;28;20035;-76
2022/09/15 10:27:30;;;;;;;4.20;0.68;;;;;;;;;;5069362;28;20028;-75
2022/09/15 10:30:12;;;;;;;4.90;1.00;;;;;;;;;;5069339;28;20028;-76
2022/09/15 10:32:38;;;;;;;5.53;1.25;;;;;;;;;;5063824;28;20044;-76
2022/09/15 10:35:10;;;;;;;6.47;0.85;;;;;;;;;;5056642;28;20029;-76
2022/09/15 10:37:36;;;;;;;7.75;1.20;;;;;;;;;;5069528;28;20123;-77
2022/09/15 10:40:10;;;;;;;4.72;1.17;;;;;;;;;;5069399;28;20479;-76
2022/09/15 10:42:36;;;;;;;8.73;1.35;;;;;;;;;;5058820;28;20550;-77
2022/09/15 10:45:19;;;;;;;7.82;0.98;;;;;;;;;;5069163;28;20028;-77
2022/09/15 10:47:49;;;;;;;3.75;0.73;;;;;;;;;;5057927;28;20114;-76
2022/09/15 10:50:44;;;;;;;3.45;0.93;;;;;;;;;;5069494;28;20020;-77
2022/09/15 10:53:19;;;;;;;3.05;0.85;;;;;;;;;;5060465;28;20126;-76
2022/09/15 10:56:03;;;;;;;6.18;0.88;;;;;;;;;;5069184;28;20968;-76
2022/09/15 10:58:34;;;;;;;4.88;1.10;;;;;;;;;;5068583;28;20035;-75
2022/09/15 11:01:03;;;;;;;6.00;1.25;;;;;;;;;;5066162;28;20032;-77
2022/09/15 11:03:37;;;;;;;5.35;1.13;;;;;;;;;;5068926;28;20028;-77
2022/09/15 11:06:12;;;;;;;6.28;1.30;;;;;;;;;;5069198;28;20032;-75
2022/09/15 11:08:57;;;;;;;4.88;0.90;;;;;;;;;;5068781;28;20028;-77
2022/09/15 11:11:36;;;;;;;4.50;0.98;;;;;;;;;;5070317;28;20036;-77
2022/09/15 11:14:06;;;;;;;4.10;1.10;;;;;;;;;;5070730;28;20028;-77
2022/09/15 11:16:49;;;;;;;4.45;1.23;;;;;;;;;;5069157;28;20036;-76
2022/09/15 11:19:24;;;;;;;7.00;0.82;;;;;;;;;;5069189;28;20020;-76
2022/09/15 11:22:00;;;;;;;6.70;1.02;;;;;;;;;;5068214;28;20048;-76
2022/09/15 11:24:26;;;;;;;6.47;1.20;;;;;;;;;;5072103;28;20028;-77
2022/09/15 11:27:04;;;;;;;5.10;1.00;;;;;;;;;;5071466;28;20120;-77
2022/09/15 11:29:39;;;;;;;6.00;1.17;;;;;;;;;;5072808;28;20028;-77
2022/09/15 11:32:12;;;;;;;5.05;1.27;;;;;;;;;;5072847;28;20037;-76
2022/09/15 11:34:43;;;;;;;8.32;1.05;;;;;;;;;;5071783;28;20490;-76
2022/09/15 11:37:24;;;;;;;6.40;1.20;;;;;;;;;;5070737;28;20033;-77
2022/09/15 11:39:59;;;;;;;4.72;0.82;;;;;;;;;;5072701;28;20024;-77
2022/09/15 11:42:33;;;;;;;8.10;1.45;;;;;;;;;;5072865;28;20059;-76
2022/09/15 11:45:01;;;;;;;4.45;0.73;;;;;;;;;;5073098;28;20479;-76
2022/09/15 11:47:36;;;;;;;4.85;1.17;;;;;;;;;;5072928;28;20491;-76
2022/09/15 11:50:10;;;;;;;3.15;0.90;;;;;;;;;;5073334;28;20036;-76
2022/09/15 11:52:46;;;;;;;8.30;1.40;;;;;;;;;;5072588;28;20044;-76
2022/09/15 11:55:31;;;;;;;2.80;0.80;;;;;;;;;;5071889;28;20538;-76
2022/09/15 11:58:01;;;;;;;2.70;0.80;;;;;;;;;;5072508;28;20502;-76
2022/09/15 12:00:27;;;;;;;7.95;1.25;;;;;;;;;;5072377;28;20032;-76
2022/09/15 12:03:12;;;;;;;5.57;1.00;;;;;;;;;;5072124;28;20016;-75
2022/09/15 12:05:59;;;;;;;3.25;1.30;;;;;;;;;;5071218;28;20135;-78
2022/09/15 12:08:28;;;;;;;4.63;1.65;;;;;;;;;;5072440;28;20021;-76
2022/09/15 12:10:56;;;;;;;8.30;1.60;;;;;;;;;;5070537;28;20093;-76
2022/09/15 12:13:23;;;;;;;5.30;1.10;;;;;;;;;;5071723;28;20028;-76
2022/09/15 12:15:50;;;;;;;4.68;1.13;;;;;;;;;;5072063;28;20094;-75
2022/09/15 12:18:37;;;;;;;8.38;1.50;;;;;;;;;;5070634;28;20025;-78
2022/09/15 12:21:14;;;;;;;5.35;1.10;;;;;;;;;;5051585;28;20098;-77
2022/09/15 12:23:42;;;;;;;5.38;1.30;;;;;;;;;;5057820;28;20074;-78
2022/09/15 12:26:13;;;;;;;6.25;1.30;;;;;;;;;;5070673;28;20470;-77
2022/09/15 12:28:41;;;;;;;7.35;1.55;;;;;;;;;;5070100;28;20368;-77
2022/09/15 12:31:24;;;;;;;5.18;1.52;;;;;;;;;;5068727;28;20037;-77
2022/09/15 12:34:05;;;;;;;10.68;1.63;;;;;;;;;;5069820;28;20782;-77
2022/09/15 12:36:37;;;;;;;5.80;1.30;;;;;;;;;;5059753;28;20129;-77
2022/09/15 12:39:05;;;;;;;7.43;1.63;;;;;;;;;;5069675;28;20048;-77
2022/09/15 12:41:32;;;;;;;6.45;1.13;;;;;;;;;;5071540;28;20426;-74
2022/09/15 12:44:01;;;;;;;3.28;0.88;;;;;;;;;;5071160;28;20024;-75
2022/09/15 12:46:27;;;;;;;3.35;0.77;;;;;;;;;;5070959;28;20376;-75
2022/09/15 12:48:56;;;;;;;5.63;1.33;;;;;;;;;;5069962;28;20494;-76
2022/09/15 12:51:24;;;;;;;10.60;2.17;;;;;;;;;;5070998;28;20040;-76
2022/09/15 12:53:54;;;;;;;5.18;1.42;;;;;;;;;;5071025;28;20021;-77
2022/09/15 12:56:28;;;;;;;4.68;0.70;;;;;;;;;;5069705;28;20490;-77
2022/09/15 12:58:55;;;;;;;7.05;0.82;;;;;;;;;;5070074;28;20387;-77
2022/09/15 13:01:23;;;;;;;3.38;0.70;;;;;;;;;;5071343;28;20032;-77
2022/09/15 13:03:49;;;;;;;8.20;1.02;;;;;;;;;;5069389;28;20037;-76
2022/09/15 13:06:23;;;;;;;8.48;2.17;;;;;;;;;;5070571;28;20024;-78
2022/09/15 13:08:53;;;;;;;4.95;1.30;;;;;;;;;;5050269;28;20033;-79
2022/09/15 13:11:30;;;;;;;5.22;0.85;;;;;;;;;;5064928;28;20037;-79
2022/09/15 13:14:05;;;;;;;5.88;1.02;;;;;;;;;;5069887;28;20548;-79
2022/09/15 13:16:35;;;;;;;3.78;0.85;;;;;;;;;;5071145;28;20055;-78
2022/09/15 13:19:20;;;;;;;7.50;1.17;;;;;;;;;;5069158;28;20028;-78
2022/09/15 13:21:51;;;;;;;7.65;1.25;;;;;;;;;;5062248;28;20041;-78
2022/09/15 13:24:19;;;;;;;5.45;1.20;;;;;;;;;;5053939;28;20029;-78
2022/09/15 13:26:51;;;;;;;7.63;1.35;;;;;;;;;;5063890;28;20051;-78
2022/09/15 13:29:17;;;;;;;7.57;0.90;;;;;;;;;;5064608;28;20067;-77
2022/09/15 13:31:58;;;;;;;6.95;1.05;;;;;;;;;;5064641;28;20364;-79
2022/09/15 13:34:24;;;;;;;10.25;1.42;;;;;;;;;;5070406;28;20013;-79
2022/09/15 13:36:59;;;;;;;7.00;1.05;;;;;;;;;;5068789;28;20056;-78
2022/09/15 13:39:46;;;;;;;8.60;1.00;;;;;;;;;;5062703;28;20475;-72
2022/09/15 13:42:15;;;;;;;8.73;1.13;;;;;;;;;;5061546;28;20037;-73
2022/09/15 13:44:44;;;;;;;5.80;1.13;;;;;;;;;;5068923;28;20030;-74
2022/09/15 13:47:29;;;;;;;5.10;1.08;;;;;;;;;;5068640;28;20063;-73
2022/09/15 13:50:13;;;;;;;8.82;1.27;;;;;;;;;;5070009;28;20036;-74
2022/09/15 13:52:52;;;;;;;4.55;1.02;;;;;;;;;;5068285;28;20028;-73
2022/09/15 13:55:26;;;;;;;5.97;1.63;;;;;;;;;;5048966;28;20078;-75
2022/09/15 13:57:54;;;;;;;5.63;1.00;;;;;;;;;;5064803;28;20086;-75
2022/09/15 14:00:30;;;;;;;5.53;1.02;;;;;;;;;;5070078;28;20451;-75
2022/09/15 14:03:01;;;;;;;3.38;1.10;;;;;;;;;;5069522;28;20437;-75
2022/09/15 14:05:28;;;;;;;6.32;1.02;;;;;;;;;;5068765;28;20116;-75
2022/09/15 14:08:07;;;;;;;6.05;1.25;;;;;;;;;;5069196;28;20039;-75
2022/09/15 14:10:37;;;;;;;8.70;1.58;;;;;;;;;;5063575;28;20479;-76
2022/09/15 14:13:03;;;;;;;6.60;1.05;;;;;;;;;;5069416;28;20025;-76
2022/09/15 14:15:30;;;;;;;7.40;1.40;;;;;;;;;;5069642;28;20028;-76
2022/09/15 14:17:56;;;;;;;4.00;1.10;;;;;;;;;;5069163;28;20059;-76
2022/09/15 14:20:30;;;;;;;4.88;0.93;;;;;;;;;;5067951;28;20063;-75
2022/09/15 14:22:56;;;;;;;4.53;0.90;;;;;;;;;;5069627;28;20066;-75
2022/09/15 14:25:22;;;;;;;4.28;0.82;;;;;;;;;;5068336;28;20127;-76
2022/09/15 14:27:50;;;;;;;7.78;1.25;;;;;;;;;;5069418;28;20104;-77
2022/09/15 14:30:18;;;;;;;4.80;0.85;;;;;;;;;;5069245;28;20032;-77
2022/09/15 14:32:45;;;;;;;7.60;0.73;;;;;;;;;;5068860;28;20021;-77
2022/09/15 14:35:16;;;;;;;8.57;1.55;;;;;;;;;;5067762;28;20130;-77
2022/09/15 14:37:46;;;;;;;3.42;1.00;;;;;;;;;;5069016;28;20021;-77
2022/09/15 14:40:23;;;;;;;7.72;1.42;;;;;;;;;;5069107;28;20086;-76
2022/09/15 14:42:50;;;;;;;7.53;0.85;;;;;;;;;;5054027;28;20068;-77
2022/09/15 14:45:17;;;;;;;6.00;1.10;;;;;;;;;;5063920;28;20489;-73
2022/09/15 14:47:44;;;;;;;3.95;0.82;;;;;;;;;;5069308;28;20032;-76
2022/09/15 14:50:10;;;;;;;4.43;0.70;;;;;;;;;;5067237;28;20023;-77
2022/09/15 14:52:40;;;;;;;3.53;0.80;;;;;;;;;;5069052;28;20028;-76